sensor_id;sensor_type;location;lat;lon;timestamp;pressure;altitude;pressure_sealevel;temperature;humidity
34925;BME280;21130;51.728;8.748;2023-11-18T00:01:40;101317.91;;;1.31;100.00
34925;BME280;21130;51.728;8.748;2023-11-18T00:04:07;101315.66;;;1.35;100.00
34925;BME280;21130;51.728;8.748;2023-11-18T00:06:40;101320.66;;;1.39;100.00
34925;BME280;21130;51.728;8.748;2023-11-18T00:09:10;101314.00;;;1.42;100.00
34925;BME280;21130;51.728;8.748;2023-11-18T00:17:53;101326.47;;;1.44;100.00
34925;BME280;21130;51.728;8.748;2023-11-18T00:20:20;101328.72;;;1.49;100.00
34925;BME280;21130;51.728;8.748;2023-11-18T00:22:49;101319.47;;;1.42;100.00
34925;BME280;21130;51.728;8.748;2023-11-18T00:25:17;101324.91;;;1.34;100.00
34925;BME280;21130;51.728;8.748;2023-11-18T00:27:44;101329.47;;;1.25;100.00
34925;BME280;21130;51.728;8.748;2023-11-18T00:30:11;101328.94;;;1.21;100.00
34925;BME280;21130;51.728;8.748;2023-11-18T00:32:38;101318.84;;;1.14;100.00
34925;BME280;21130;51.728;8.748;2023-11-18T00:35:05;101324.28;;;1.05;100.00
34925;BME280;21130;51.728;8.748;2023-11-18T00:37:33;101328.72;;;1.06;100.00
34925;BME280;21130;51.728;8.748;2023-11-18T00:40:00;101334.44;;;0.95;100.00
34925;BME280;21130;51.728;8.748;2023-11-18T00:42:28;101321.91;;;0.84;100.00
34925;BME280;21130;51.728;8.748;2023-11-18T00:44:56;101328.19;;;0.77;100.00
34925;BME280;21130;51.728;8.748;2023-11-18T00:47:22;101333.94;;;0.66;100.00
34925;BME280;21130;51.728;8.748;2023-11-18T00:49:49;101333.00;;;0.57;100.00
34925;BME280;21130;51.728;8.748;2023-11-18T00:52:17;101334.63;;;0.50;100.00
34925;BME280;21130;51.728;8.748;2023-11-18T00:54:43;101335.00;;;0.55;100.00
34925;BME280;21130;51.728;8.748;2023-11-18T00:57:10;101334.25;;;0.45;100.00
34925;BME280;21130;51.728;8.748;2023-11-18T00:59:41;101326.84;;;0.37;100.00
34925;BME280;21130;51.728;8.748;2023-11-18T01:02:08;101330.06;;;0.32;100.00
34925;BME280;21130;51.728;8.748;2023-11-18T01:04:34;101331.88;;;0.24;100.00
34925;BME280;21130;51.728;8.748;2023-11-18T01:07:01;101333.19;;;0.19;100.00
34925;BME280;21130;51.728;8.748;2023-11-18T01:09:28;101328.91;;;0.17;100.00
34925;BME280;21130;51.728;8.748;2023-11-18T01:11:54;101336.38;;;0.15;100.00
34925;BME280;21130;51.728;8.748;2023-11-18T01:14:22;101332.75;;;0.06;100.00
34925;BME280;21130;51.728;8.748;2023-11-18T01:16:51;101341.25;;;0.03;100.00
34925;BME280;21130;51.728;8.748;2023-11-18T01:19:18;101341.72;;;-0.02;100.00
34925;BME280;21130;51.728;8.748;2023-11-18T01:21:45;101335.16;;;-0.09;100.00
34925;BME280;21130;51.728;8.748;2023-11-18T01:24:12;101349.56;;;-0.16;100.00
34925;BME280;21130;51.728;8.748;2023-11-18T01:26:39;101350.34;;;-0.24;100.00
34925;BME280;21130;51.728;8.748;2023-11-18T01:29:05;101349.94;;;-0.29;100.00
34925;BME280;21130;51.728;8.748;2023-11-18T01:31:32;101351.41;;;-0.35;100.00
34925;BME280;21130;51.728;8.748;2023-11-18T01:34:00;101351.69;;;-0.38;100.00
34925;BME280;21130;51.728;8.748;2023-11-18T01:36:26;101356.94;;;-0.45;100.00
34925;BME280;21130;51.728;8.748;2023-11-18T01:38:53;101358.38;;;-0.50;100.00
34925;BME280;21130;51.728;8.748;2023-11-18T01:41:20;101358.53;;;-0.52;100.00
34925;BME280;21130;51.728;8.748;2023-11-18T01:43:47;101362.44;;;-0.54;100.00
34925;BME280;21130;51.728;8.748;2023-11-18T01:46:13;101366.88;;;-0.53;100.00
34925;BME280;21130;51.728;8.748;2023-11-18T01:48:42;101360.56;;;-0.54;100.00
34925;BME280;21130;51.728;8.748;2023-11-18T01:51:11;101362.03;;;-0.59;100.00
34925;BME280;21130;51.728;8.748;2023-11-18T01:53:38;101358.19;;;-0.67;100.00
34925;BME280;21130;51.728;8.748;2023-11-18T01:56:06;101372.84;;;-0.68;100.00
34925;BME280;21130;51.728;8.748;2023-11-18T01:58:34;101370.78;;;-0.66;100.00
34925;BME280;21130;51.728;8.748;2023-11-18T02:01:01;101370.38;;;-0.71;100.00
34925;BME280;21130;51.728;8.748;2023-11-18T02:03:28;101368.28;;;-0.77;100.00
34925;BME280;21130;51.728;8.748;2023-11-18T02:05:56;101365.44;;;-0.85;100.00
34925;BME280;21130;51.728;8.748;2023-11-18T02:08:24;101374.06;;;-0.90;100.00
34925;BME280;21130;51.728;8.748;2023-11-18T02:13:39;101376.81;;;-0.99;100.00
34925;BME280;21130;51.728;8.748;2023-11-18T02:16:07;101361.94;;;-1.05;100.00
34925;BME280;21130;51.728;8.748;2023-11-18T02:18:35;101369.81;;;-1.12;100.00
34925;BME280;21130;51.728;8.748;2023-11-18T02:21:06;101365.66;;;-1.16;100.00
34925;BME280;21130;51.728;8.748;2023-11-18T02:23:35;101355.94;;;-1.18;100.00
34925;BME280;21130;51.728;8.748;2023-11-18T02:26:04;101359.81;;;-1.21;100.00
34925;BME280;21130;51.728;8.748;2023-11-18T02:28:31;101354.34;;;-1.21;100.00
34925;BME280;21130;51.728;8.748;2023-11-18T02:31:03;101358.41;;;-1.25;100.00
34925;BME280;21130;51.728;8.748;2023-11-18T02:33:34;101365.00;;;-1.27;100.00
34925;BME280;21130;51.728;8.748;2023-11-18T02:36:10;101358.97;;;-1.31;100.00
34925;BME280;21130;51.728;8.748;2023-11-18T02:38:44;101361.38;;;-1.28;100.00
34925;BME280;21130;51.728;8.748;2023-11-18T02:41:16;101362.41;;;-1.29;100.00
34925;BME280;21130;51.728;8.748;2023-11-18T02:43:44;101367.44;;;-1.34;100.00
34925;BME280;21130;51.728;8.748;2023-11-18T02:46:12;101356.00;;;-1.38;100.00
34925;BME280;21130;51.728;8.748;2023-11-18T02:48:39;101353.28;;;-1.38;100.00
34925;BME280;21130;51.728;8.748;2023-11-18T02:51:06;101358.28;;;-1.43;100.00
34925;BME280;21130;51.728;8.748;2023-11-18T02:53:33;101355.00;;;-1.46;100.00
34925;BME280;21130;51.728;8.748;2023-11-18T02:56:00;101354.44;;;-1.50;100.00
34925;BME280;21130;51.728;8.748;2023-11-18T02:58:29;101353.00;;;-1.54;100.00
34925;BME280;21130;51.728;8.748;2023-11-18T03:00:56;101346.13;;;-1.58;100.00
34925;BME280;21130;51.728;8.748;2023-11-18T03:03:25;101352.56;;;-1.59;100.00
34925;BME280;21130;51.728;8.748;2023-11-18T03:05:52;101343.69;;;-1.61;100.00
34925;BME280;21130;51.728;8.748;2023-11-18T03:08:20;101342.84;;;-1.62;100.00
34925;BME280;21130;51.728;8.748;2023-11-18T03:10:46;101345.69;;;-1.63;100.00
34925;BME280;21130;51.728;8.748;2023-11-18T03:13:13;101355.72;;;-1.64;100.00
34925;BME280;21130;51.728;8.748;2023-11-18T03:15:41;101355.88;;;-1.65;100.00
34925;BME280;21130;51.728;8.748;2023-11-18T03:18:07;101350.56;;;-1.67;100.00
34925;BME280;21130;51.728;8.748;2023-11-18T03:26:45;101350.88;;;-1.70;100.00
34925;BME280;21130;51.728;8.748;2023-11-18T03:29:12;101346.41;;;-1.71;100.00
34925;BME280;21130;51.728;8.748;2023-11-18T03:31:40;101344.72;;;-1.72;100.00
34925;BME280;21130;51.728;8.748;2023-11-18T03:34:09;101339.25;;;-1.72;100.00
34925;BME280;21130;51.728;8.748;2023-11-18T03:36:36;101344.72;;;-1.72;100.00
34925;BME280;21130;51.728;8.748;2023-11-18T03:39:03;101338.13;;;-1.69;100.00
34925;BME280;21130;51.728;8.748;2023-11-18T03:41:29;101336.25;;;-1.69;100.00
34925;BME280;21130;51.728;8.748;2023-11-18T03:43:56;101332.81;;;-1.71;100.00
34925;BME280;21130;51.728;8.748;2023-11-18T03:46:22;101329.41;;;-1.73;100.00
34925;BME280;21130;51.728;8.748;2023-11-18T03:48:50;101328.09;;;-1.69;100.00
34925;BME280;21130;51.728;8.748;2023-11-18T03:51:16;101331.22;;;-1.74;100.00
34925;BME280;21130;51.728;8.748;2023-11-18T03:53:43;101332.69;;;-1.79;100.00
34925;BME280;21130;51.728;8.748;2023-11-18T03:56:09;101322.09;;;-1.82;100.00
34925;BME280;21130;51.728;8.748;2023-11-18T03:58:36;101314.91;;;-1.83;100.00
34925;BME280;21130;51.728;8.748;2023-11-18T04:01:03;101313.50;;;-1.87;100.00
34925;BME280;21130;51.728;8.748;2023-11-18T04:03:30;101306.31;;;-1.88;100.00
34925;BME280;21130;51.728;8.748;2023-11-18T04:05:58;101312.91;;;-1.91;100.00
34925;BME280;21130;51.728;8.748;2023-11-18T04:08:24;101316.66;;;-1.92;100.00
34925;BME280;21130;51.728;8.748;2023-11-18T04:10:52;101323.25;;;-1.94;100.00
34925;BME280;21130;51.728;8.748;2023-11-18T04:13:21;101327.97;;;-1.97;100.00
34925;BME280;21130;51.728;8.748;2023-11-18T04:15:47;101321.66;;;-1.97;100.00
34925;BME280;21130;51.728;8.748;2023-11-18T04:18:14;101316.09;;;-1.96;100.00
34925;BME280;21130;51.728;8.748;2023-11-18T04:20:40;101317.25;;;-1.98;100.00
34925;BME280;21130;51.728;8.748;2023-11-18T04:23:08;101312.91;;;-2.01;100.00
34925;BME280;21130;51.728;8.748;2023-11-18T04:25:37;101312.91;;;-2.01;100.00
34925;BME280;21130;51.728;8.748;2023-11-18T04:28:03;101306.63;;;-2.01;100.00
34925;BME280;21130;51.728;8.748;2023-11-18T04:52:16;101286.88;;;-2.23;100.00
34925;BME280;21130;51.728;8.748;2023-11-18T04:54:43;101280.00;;;-2.27;100.00
34925;BME280;21130;51.728;8.748;2023-11-18T04:57:09;101289.31;;;-2.29;100.00
34925;BME280;21130;51.728;8.748;2023-11-18T04:59:36;101285.72;;;-2.30;100.00
34925;BME280;21130;51.728;8.748;2023-11-18T05:02:02;101265.69;;;-2.29;100.00
34925;BME280;21130;51.728;8.748;2023-11-18T05:04:29;101263.13;;;-2.30;100.00
34925;BME280;21130;51.728;8.748;2023-11-18T05:06:55;101257.69;;;-2.21;100.00
34925;BME280;21130;51.728;8.748;2023-11-18T05:09:23;101263.25;;;-2.22;100.00
34925;BME280;21130;51.728;8.748;2023-11-18T05:11:50;101259.81;;;-2.24;100.00
34925;BME280;21130;51.728;8.748;2023-11-18T05:14:17;101261.09;;;-2.19;100.00
34925;BME280;21130;51.728;8.748;2023-11-18T05:16:45;101254.25;;;-2.13;100.00
34925;BME280;21130;51.728;8.748;2023-11-18T05:19:11;101247.06;;;-2.04;100.00
34925;BME280;21130;51.728;8.748;2023-11-18T05:21:39;101242.78;;;-2.07;100.00
34925;BME280;21130;51.728;8.748;2023-11-18T05:24:06;101242.06;;;-1.99;100.00
34925;BME280;21130;51.728;8.748;2023-11-18T05:26:34;101235.63;;;-1.98;100.00
34925;BME280;21130;51.728;8.748;2023-11-18T05:29:01;101244.78;;;-1.99;100.00
34925;BME280;21130;51.728;8.748;2023-11-18T05:31:28;101240.19;;;-1.99;100.00
34925;BME280;21130;51.728;8.748;2023-11-18T05:33:57;101248.50;;;-2.00;100.00
34925;BME280;21130;51.728;8.748;2023-11-18T05:36:24;101254.09;;;-2.02;100.00
34925;BME280;21130;51.728;8.748;2023-11-18T05:38:54;101257.81;;;-2.03;100.00
34925;BME280;21130;51.728;8.748;2023-11-18T05:41:20;101257.66;;;-2.01;100.00
34925;BME280;21130;51.728;8.748;2023-11-18T05:43:54;101249.94;;;-2.06;100.00
34925;BME280;21130;51.728;8.748;2023-11-18T05:46:23;101251.06;;;-2.08;100.00
34925;BME280;21130;51.728;8.748;2023-11-18T05:48:51;101245.94;;;-2.11;100.00
34925;BME280;21130;51.728;8.748;2023-11-18T05:51:20;101238.06;;;-2.14;100.00
34925;BME280;21130;51.728;8.748;2023-11-18T05:53:48;101236.19;;;-2.14;100.00
34925;BME280;21130;51.728;8.748;2023-11-18T05:56:16;101237.75;;;-2.02;100.00
34925;BME280;21130;51.728;8.748;2023-11-18T05:58:43;101225.00;;;-1.91;100.00
34925;BME280;21130;51.728;8.748;2023-11-18T06:01:11;101227.31;;;-1.97;100.00
34925;BME280;21130;51.728;8.748;2023-11-18T06:03:38;101230.88;;;-1.96;100.00
34925;BME280;21130;51.728;8.748;2023-11-18T06:06:06;101224.16;;;-1.92;100.00
34925;BME280;21130;51.728;8.748;2023-11-18T06:08:33;101225.53;;;-1.68;100.00
34925;BME280;21130;51.728;8.748;2023-11-18T06:11:00;101226.41;;;-1.68;100.00
34925;BME280;21130;51.728;8.748;2023-11-18T06:13:39;101213.22;;;-1.63;100.00
34925;BME280;21130;51.728;8.748;2023-11-18T06:16:08;101226.09;;;-1.65;100.00
34925;BME280;21130;51.728;8.748;2023-11-18T06:18:41;101225.81;;;-1.62;100.00
34925;BME280;21130;51.728;8.748;2023-11-18T06:21:11;101224.78;;;-1.61;100.00
34925;BME280;21130;51.728;8.748;2023-11-18T06:23:37;101225.50;;;-1.59;100.00
34925;BME280;21130;51.728;8.748;2023-11-18T06:26:04;101223.06;;;-1.62;100.00
34925;BME280;21130;51.728;8.748;2023-11-18T06:28:31;101225.81;;;-1.62;100.00
34925;BME280;21130;51.728;8.748;2023-11-18T06:30:59;101228.53;;;-1.62;100.00
34925;BME280;21130;51.728;8.748;2023-11-18T06:33:26;101222.06;;;-1.61;100.00
34925;BME280;21130;51.728;8.748;2023-11-18T06:35:54;101223.94;;;-1.61;100.00
34925;BME280;21130;51.728;8.748;2023-11-18T06:38:21;101233.97;;;-1.62;100.00
34925;BME280;21130;51.728;8.748;2023-11-18T06:40:48;101242.09;;;-1.52;100.00
34925;BME280;21130;51.728;8.748;2023-11-18T06:43:17;101240.22;;;-1.52;100.00
34925;BME280;21130;51.728;8.748;2023-11-18T06:45:44;101244.38;;;-1.47;100.00
34925;BME280;21130;51.728;8.748;2023-11-18T06:48:12;101256.94;;;-1.37;100.00
34925;BME280;21130;51.728;8.748;2023-11-18T06:50:40;101248.66;;;-1.35;100.00
34925;BME280;21130;51.728;8.748;2023-11-18T06:53:11;101242.72;;;-1.31;100.00
34925;BME280;21130;51.728;8.748;2023-11-18T06:55:37;101240.53;;;-1.17;100.00
34925;BME280;21130;51.728;8.748;2023-11-18T06:58:04;101231.03;;;-1.13;100.00
34925;BME280;21130;51.728;8.748;2023-11-18T07:00:31;101233.72;;;-1.03;100.00
34925;BME280;21130;51.728;8.748;2023-11-18T07:02:58;101242.28;;;-0.98;100.00
34925;BME280;21130;51.728;8.748;2023-11-18T07:05:26;101238.97;;;-0.92;100.00
34925;BME280;21130;51.728;8.748;2023-11-18T07:07:54;101233.63;;;-0.84;100.00
34925;BME280;21130;51.728;8.748;2023-11-18T07:10:22;101234.47;;;-0.83;100.00
34925;BME280;21130;51.728;8.748;2023-11-18T07:12:48;101240.16;;;-0.77;100.00
34925;BME280;21130;51.728;8.748;2023-11-18T07:15:15;101235.13;;;-0.72;100.00
34925;BME280;21130;51.728;8.748;2023-11-18T07:17:42;101241.34;;;-0.61;100.00
34925;BME280;21130;51.728;8.748;2023-11-18T07:20:09;101231.16;;;-0.59;100.00
34925;BME280;21130;51.728;8.748;2023-11-18T07:22:39;101229.81;;;-0.55;100.00
34925;BME280;21130;51.728;8.748;2023-11-18T07:25:06;101235.00;;;-0.52;100.00
34925;BME280;21130;51.728;8.748;2023-11-18T07:27:36;101231.31;;;-0.43;100.00
34925;BME280;21130;51.728;8.748;2023-11-18T07:30:03;101228.75;;;-0.45;100.00
34925;BME280;21130;51.728;8.748;2023-11-18T07:32:36;101241.75;;;-0.38;100.00
34925;BME280;21130;51.728;8.748;2023-11-18T07:35:04;101243.00;;;-0.33;100.00
34925;BME280;21130;51.728;8.748;2023-11-18T07:37:34;101251.03;;;-0.31;100.00
34925;BME280;21130;51.728;8.748;2023-11-18T07:40:00;101245.13;;;-0.27;100.00
34925;BME280;21130;51.728;8.748;2023-11-18T07:42:30;101247.53;;;-0.24;100.00
34925;BME280;21130;51.728;8.748;2023-11-18T07:45:01;101253.69;;;-0.22;100.00
34925;BME280;21130;51.728;8.748;2023-11-18T07:47:29;101248.31;;;-0.13;100.00
34925;BME280;21130;51.728;8.748;2023-11-18T07:49:57;101255.16;;;-0.09;100.00
34925;BME280;21130;51.728;8.748;2023-11-18T07:52:26;101254.84;;;-0.06;100.00
34925;BME280;21130;51.728;8.748;2023-11-18T07:54:54;101255.56;;;-0.04;100.00
34925;BME280;21130;51.728;8.748;2023-11-18T07:57:20;101260.38;;;0.02;100.00
34925;BME280;21130;51.728;8.748;2023-11-18T07:59:49;101262.16;;;0.11;100.00
34925;BME280;21130;51.728;8.748;2023-11-18T08:02:16;101248.56;;;0.19;100.00
34925;BME280;21130;51.728;8.748;2023-11-18T08:04:45;101242.06;;;0.38;100.00
34925;BME280;21130;51.728;8.748;2023-11-18T08:07:11;101243.78;;;0.66;100.00
34925;BME280;21130;51.728;8.748;2023-11-18T08:09:38;101231.38;;;1.22;100.00
34925;BME280;21130;51.728;8.748;2023-11-18T08:12:05;101220.00;;;1.67;100.00
34925;BME280;21130;51.728;8.748;2023-11-18T08:14:34;101220.69;;;2.10;100.00
34925;BME280;21130;51.728;8.748;2023-11-18T08:17:01;101213.66;;;2.32;100.00
34925;BME280;21130;51.728;8.748;2023-11-18T08:19:31;101215.72;;;2.47;100.00
34925;BME280;21130;51.728;8.748;2023-11-18T08:21:59;101210.19;;;2.55;100.00
34925;BME280;21130;51.728;8.748;2023-11-18T08:24:26;101203.72;;;2.56;100.00
34925;BME280;21130;51.728;8.748;2023-11-18T08:26:53;101196.66;;;2.62;100.00
34925;BME280;21130;51.728;8.748;2023-11-18T08:29:19;101201.66;;;2.50;100.00
34925;BME280;21130;51.728;8.748;2023-11-18T08:31:46;101188.94;;;2.65;100.00
34925;BME280;21130;51.728;8.748;2023-11-18T08:34:13;101188.41;;;3.09;100.00
34925;BME280;21130;51.728;8.748;2023-11-18T08:36:40;101186.78;;;3.54;100.00
34925;BME280;21130;51.728;8.748;2023-11-18T08:39:09;101188.47;;;3.78;100.00
34925;BME280;21130;51.728;8.748;2023-11-18T08:41:36;101179.19;;;4.02;100.00
34925;BME280;21130;51.728;8.748;2023-11-18T08:44:04;101173.19;;;4.81;100.00
34925;BME280;21130;51.728;8.748;2023-11-18T08:46:31;101158.94;;;6.08;100.00
34925;BME280;21130;51.728;8.748;2023-11-18T08:48:57;101166.84;;;7.29;100.00
34925;BME280;21130;51.728;8.748;2023-11-18T08:51:31;101165.56;;;7.18;100.00
34925;BME280;21130;51.728;8.748;2023-11-18T08:54:00;101163.38;;;6.65;100.00
34925;BME280;21130;51.728;8.748;2023-11-18T08:56:27;101161.13;;;6.19;100.00
34925;BME280;21130;51.728;8.748;2023-11-18T08:59:00;101170.09;;;5.78;100.00
34925;BME280;21130;51.728;8.748;2023-11-18T09:01:26;101171.13;;;5.34;100.00
34925;BME280;21130;51.728;8.748;2023-11-18T09:03:53;101176.75;;;5.11;100.00
34925;BME280;21130;51.728;8.748;2023-11-18T09:06:21;101175.22;;;5.09;100.00
34925;BME280;21130;51.728;8.748;2023-11-18T09:08:53;101170.91;;;5.00;100.00
34925;BME280;21130;51.728;8.748;2023-11-18T09:11:22;101163.41;;;4.93;100.00
34925;BME280;21130;51.728;8.748;2023-11-18T09:13:51;101173.47;;;5.37;100.00
34925;BME280;21130;51.728;8.748;2023-11-18T09:16:19;101168.63;;;5.61;100.00
34925;BME280;21130;51.728;8.748;2023-11-18T09:18:48;101167.00;;;5.88;100.00
34925;BME280;21130;51.728;8.748;2023-11-18T09:21:14;101159.38;;;6.12;100.00
34925;BME280;21130;51.728;8.748;2023-11-18T09:23:44;101149.81;;;6.36;100.00
34925;BME280;21130;51.728;8.748;2023-11-18T09:26:13;101140.72;;;6.35;100.00
34925;BME280;21130;51.728;8.748;2023-11-18T09:28:41;101140.28;;;6.38;100.00
34925;BME280;21130;51.728;8.748;2023-11-18T09:31:10;101146.59;;;6.67;100.00
34925;BME280;21130;51.728;8.748;2023-11-18T09:33:39;101150.13;;;6.82;100.00
34925;BME280;21130;51.728;8.748;2023-11-18T09:36:11;101140.97;;;6.82;100.00
34925;BME280;21130;51.728;8.748;2023-11-18T09:38:39;101141.63;;;6.84;100.00
34925;BME280;21130;51.728;8.748;2023-11-18T09:41:07;101149.88;;;6.84;100.00
34925;BME280;21130;51.728;8.748;2023-11-18T09:43:37;101149.19;;;6.68;100.00
34925;BME280;21130;51.728;8.748;2023-11-18T09:46:09;101145.63;;;6.40;100.00
34925;BME280;21130;51.728;8.748;2023-11-18T09:48:42;101132.44;;;6.07;100.00
34925;BME280;21130;51.728;8.748;2023-11-18T09:51:13;101121.28;;;5.94;100.00
34925;BME280;21130;51.728;8.748;2023-11-18T09:53:44;101120.34;;;5.87;100.00
34925;BME280;21130;51.728;8.748;2023-11-18T09:56:19;101109.25;;;5.95;100.00
34925;BME280;21130;51.728;8.748;2023-11-18T09:59:01;101103.56;;;5.81;100.00
34925;BME280;21130;51.728;8.748;2023-11-18T10:01:34;101101.81;;;5.74;100.00
34925;BME280;21130;51.728;8.748;2023-11-18T10:04:04;101097.69;;;5.84;100.00
34925;BME280;21130;51.728;8.748;2023-11-18T10:06:33;101091.31;;;5.84;100.00
34925;BME280;21130;51.728;8.748;2023-11-18T10:09:02;101085.84;;;5.91;100.00
34925;BME280;21130;51.728;8.748;2023-11-18T10:11:41;101091.31;;;5.84;100.00
34925;BME280;21130;51.728;8.748;2023-11-18T10:14:08;101085.41;;;5.87;100.00
34925;BME280;21130;51.728;8.748;2023-11-18T10:16:37;101091.06;;;5.79;100.00
34925;BME280;21130;51.728;8.748;2023-11-18T10:19:04;101086.66;;;5.84;100.00
34925;BME280;21130;51.728;8.748;2023-11-18T10:21:34;101088.97;;;5.81;100.00
34925;BME280;21130;51.728;8.748;2023-11-18T10:24:21;101082.78;;;5.79;100.00
34925;BME280;21130;51.728;8.748;2023-11-18T10:27:06;101080.94;;;5.86;100.00
34925;BME280;21130;51.728;8.748;2023-11-18T10:29:56;101075.09;;;5.68;100.00
34925;BME280;21130;51.728;8.748;2023-11-18T10:32:42;101070.50;;;5.75;100.00
34925;BME280;21130;51.728;8.748;2023-11-18T10:35:11;101072.41;;;5.74;100.00
34925;BME280;21130;51.728;8.748;2023-11-18T10:37:38;101073.44;;;5.73;100.00
34925;BME280;21130;51.728;8.748;2023-11-18T10:40:09;101064.84;;;5.61;100.00
34925;BME280;21130;51.728;8.748;2023-11-18T10:42:38;101071.25;;;5.69;100.00
34925;BME280;21130;51.728;8.748;2023-11-18T10:45:05;101068.25;;;5.63;100.00
34925;BME280;21130;51.728;8.748;2023-11-18T10:47:33;101062.75;;;5.63;100.00
34925;BME280;21130;51.728;8.748;2023-11-18T10:50:02;101055.56;;;5.62;100.00
34925;BME280;21130;51.728;8.748;2023-11-18T10:52:28;101038.63;;;5.66;100.00
34925;BME280;21130;51.728;8.748;2023-11-18T10:55:00;101027.25;;;5.75;100.00
34925;BME280;21130;51.728;8.748;2023-11-18T10:57:36;101022.13;;;5.94;100.00
34925;BME280;21130;51.728;8.748;2023-11-18T11:00:05;101025.56;;;5.74;100.00
34925;BME280;21130;51.728;8.748;2023-11-18T11:02:38;101014.09;;;5.99;100.00
34925;BME280;21130;51.728;8.748;2023-11-18T11:05:10;101007.16;;;5.81;100.00
34925;BME280;21130;51.728;8.748;2023-11-18T11:07:42;101025.50;;;5.68;100.00
34925;BME280;21130;51.728;8.748;2023-11-18T11:10:08;101025.28;;;5.69;100.00
34925;BME280;21130;51.728;8.748;2023-11-18T11:12:43;101019.25;;;5.80;100.00
34925;BME280;21130;51.728;8.748;2023-11-18T11:15:20;101024.69;;;5.74;100.00
34925;BME280;21130;51.728;8.748;2023-11-18T11:17:52;101013.31;;;6.05;100.00
34925;BME280;21130;51.728;8.748;2023-11-18T11:20:22;101012.75;;;6.23;100.00
34925;BME280;21130;51.728;8.748;2023-11-18T11:23:02;101000.25;;;6.20;100.00
34925;BME280;21130;51.728;8.748;2023-11-18T11:25:41;100992.88;;;6.34;100.00
34925;BME280;21130;51.728;8.748;2023-11-18T11:28:11;100980.09;;;6.20;100.00
34925;BME280;21130;51.728;8.748;2023-11-18T11:30:45;100975.50;;;6.34;100.00
34925;BME280;21130;51.728;8.748;2023-11-18T11:33:16;100967.00;;;6.28;100.00
34925;BME280;21130;51.728;8.748;2023-11-18T11:35:50;100966.34;;;6.26;100.00
34925;BME280;21130;51.728;8.748;2023-11-18T11:38:22;100963.09;;;6.16;100.00
34925;BME280;21130;51.728;8.748;2023-11-18T11:40:52;100955.03;;;6.08;100.00
34925;BME280;21130;51.728;8.748;2023-11-18T11:43:20;100942.41;;;5.92;100.00
34925;BME280;21130;51.728;8.748;2023-11-18T11:45:49;100951.22;;;5.74;100.00
34925;BME280;21130;51.728;8.748;2023-11-18T11:48:17;100966.72;;;5.82;100.00
34925;BME280;21130;51.728;8.748;2023-11-18T11:51:16;100975.84;;;5.82;100.00
34925;BME280;21130;51.728;8.748;2023-11-18T11:53:47;100982.19;;;5.83;100.00
34925;BME280;21130;51.728;8.748;2023-11-18T11:56:17;100985.75;;;5.77;100.00
34925;BME280;21130;51.728;8.748;2023-11-18T11:58:46;100985.50;;;5.72;100.00
34925;BME280;21130;51.728;8.748;2023-11-18T12:01:24;100988.81;;;5.60;100.00
34925;BME280;21130;51.728;8.748;2023-11-18T12:03:59;100979.28;;;5.63;100.00
34925;BME280;21130;51.728;8.748;2023-11-18T12:06:33;100975.31;;;5.44;100.00
34925;BME280;21130;51.728;8.748;2023-11-18T12:09:01;100975.56;;;5.43;100.00
34925;BME280;21130;51.728;8.748;2023-11-18T12:11:33;100969.56;;;5.39;100.00
34925;BME280;21130;51.728;8.748;2023-11-18T12:14:01;100962.19;;;5.39;100.00
34925;BME280;21130;51.728;8.748;2023-11-18T12:16:59;100958.78;;;5.37;100.00
34925;BME280;21130;51.728;8.748;2023-11-18T12:19:33;100965.38;;;5.43;100.00
34925;BME280;21130;51.728;8.748;2023-11-18T12:23:02;100955.81;;;5.39;100.00
34925;BME280;21130;51.728;8.748;2023-11-18T12:25:29;100955.13;;;5.30;100.00
34925;BME280;21130;51.728;8.748;2023-11-18T12:27:57;100948.53;;;5.25;100.00
34925;BME280;21130;51.728;8.748;2023-11-18T12:30:40;100934.78;;;5.31;100.00
34925;BME280;21130;51.728;8.748;2023-11-18T12:33:22;100937.34;;;5.33;100.00
34925;BME280;21130;51.728;8.748;2023-11-18T12:36:42;100933.91;;;5.24;100.00
34925;BME280;21130;51.728;8.748;2023-11-18T12:39:32;100933.63;;;5.19;100.00
34925;BME280;21130;51.728;8.748;2023-11-18T12:42:07;100934.63;;;5.11;100.00
34925;BME280;21130;51.728;8.748;2023-11-18T12:44:38;100923.44;;;5.13;100.00
34925;BME280;21130;51.728;8.748;2023-11-18T12:47:20;100928.03;;;5.06;100.00
34925;BME280;21130;51.728;8.748;2023-11-18T12:49:53;100920.00;;;5.04;100.00
34925;BME280;21130;51.728;8.748;2023-11-18T12:52:22;100925.50;;;5.04;100.00
34925;BME280;21130;51.728;8.748;2023-11-18T12:54:50;100912.00;;;5.09;100.00
34925;BME280;21130;51.728;8.748;2023-11-18T12:57:26;100909.31;;;4.94;100.00
34925;BME280;21130;51.728;8.748;2023-11-18T12:59:56;100903.34;;;4.91;100.00
34925;BME280;21130;51.728;8.748;2023-11-18T13:02:23;100901.44;;;4.91;100.00
34925;BME280;21130;51.728;8.748;2023-11-18T13:04:50;100902.50;;;4.90;100.00
34925;BME280;21130;51.728;8.748;2023-11-18T13:07:19;100890.84;;;4.88;100.00
34925;BME280;21130;51.728;8.748;2023-11-18T13:09:46;100883.00;;;4.85;100.00
34925;BME280;21130;51.728;8.748;2023-11-18T13:12:15;100882.09;;;4.78;100.00
34925;BME280;21130;51.728;8.748;2023-11-18T13:14:42;100876.81;;;4.76;100.00
34925;BME280;21130;51.728;8.748;2023-11-18T13:17:12;100871.31;;;4.76;100.00
34925;BME280;21130;51.728;8.748;2023-11-18T13:19:39;100863.66;;;4.72;100.00
34925;BME280;21130;51.728;8.748;2023-11-18T13:22:09;100862.59;;;4.73;100.00
34925;BME280;21130;51.728;8.748;2023-11-18T13:24:37;100857.66;;;4.68;100.00
34925;BME280;21130;51.728;8.748;2023-11-18T13:27:06;100860.03;;;4.71;100.00
34925;BME280;21130;51.728;8.748;2023-11-18T13:29:35;100847.25;;;4.64;100.00
34925;BME280;21130;51.728;8.748;2023-11-18T13:32:05;100845.38;;;4.64;100.00
34925;BME280;21130;51.728;8.748;2023-11-18T13:34:33;100838.81;;;4.65;100.00